createdAt,value
2023-04-18T00:00:09.661Z,1.30
2023-04-18T00:01:09.694Z,1.25
2023-04-18T00:02:09.675Z,1.25
2023-04-18T00:03:09.883Z,1.29
2023-04-18T00:04:09.902Z,1.28
2023-04-18T00:05:09.784Z,1.30
2023-04-18T00:06:09.705Z,1.28
2023-04-18T00:07:09.712Z,1.24
2023-04-18T00:08:09.708Z,1.25
2023-04-18T00:09:09.784Z,1.26
2023-04-18T00:10:09.748Z,1.26
2023-04-18T00:11:09.748Z,1.27
2023-04-18T00:12:09.741Z,1.28
2023-04-18T00:13:09.765Z,1.25
2023-04-18T00:14:09.769Z,1.28
2023-04-18T00:15:09.778Z,1.28
2023-04-18T00:16:09.781Z,1.27
2023-04-18T00:17:09.924Z,1.28
2023-04-18T00:18:09.937Z,1.27
2023-04-18T00:19:09.807Z,1.26
2023-04-18T00:20:09.816Z,1.29
2023-04-18T00:21:09.845Z,1.28
2023-04-18T00:22:09.868Z,1.28
2023-04-18T00:23:11.126Z,1.29
2023-04-18T00:24:09.882Z,1.29
2023-04-18T00:25:09.885Z,1.30
2023-04-18T00:26:09.890Z,1.27
2023-04-18T00:27:09.918Z,1.26
2023-04-18T00:28:09.914Z,1.26
2023-04-18T00:29:09.910Z,1.28
2023-04-18T00:30:09.914Z,1.29
2023-04-18T00:31:09.974Z,1.26
2023-04-18T00:32:09.929Z,1.30
2023-04-18T00:33:09.942Z,1.28
2023-04-18T00:34:09.916Z,1.27
2023-04-18T00:35:09.983Z,1.28
2023-04-18T00:36:10.018Z,1.26
2023-04-18T00:37:10.016Z,1.28
2023-04-18T00:38:10.037Z,1.26
2023-04-18T00:39:10.041Z,1.30
2023-04-18T00:40:09.999Z,1.25
2023-04-18T00:41:10.070Z,1.29
2023-04-18T00:42:10.064Z,1.28
2023-04-18T00:43:10.061Z,1.29
2023-04-18T00:44:10.078Z,1.28
2023-04-18T00:45:10.072Z,1.28
2023-04-18T00:46:10.183Z,1.29
2023-04-18T00:47:10.094Z,1.30
2023-04-18T00:48:10.111Z,1.28
2023-04-18T00:49:10.120Z,1.27
2023-04-18T00:50:10.104Z,1.29
2023-04-18T00:51:10.417Z,1.29
2023-04-18T00:52:10.134Z,1.31
2023-04-18T00:53:10.144Z,1.28
2023-04-18T00:54:10.140Z,1.28
2023-04-18T00:55:10.149Z,1.26
2023-04-18T00:56:10.152Z,1.28
2023-04-18T00:57:10.150Z,1.29
2023-04-18T00:58:10.173Z,1.30
2023-04-18T00:59:10.217Z,1.29
2023-04-18T01:00:10.208Z,1.28
2023-04-18T01:01:10.214Z,1.27
2023-04-18T01:02:10.210Z,1.26
2023-04-18T01:03:10.365Z,1.27
2023-04-18T01:04:10.350Z,1.26
2023-04-18T01:05:10.281Z,1.29
2023-04-18T01:06:10.256Z,1.27
2023-04-18T01:07:10.270Z,1.28
2023-04-18T01:08:10.273Z,1.30
2023-04-18T01:09:10.285Z,1.28
2023-04-18T01:10:10.314Z,1.31
2023-04-18T01:11:10.363Z,1.26
2023-04-18T01:12:10.392Z,1.29
2023-04-18T01:13:10.393Z,1.26
2023-04-18T01:14:10.427Z,1.31
2023-04-18T01:15:10.390Z,1.28
2023-04-18T01:16:10.443Z,1.26
2023-04-18T01:17:10.404Z,1.29
2023-04-18T01:18:10.409Z,1.28
2023-04-18T01:19:10.415Z,1.29
2023-04-18T01:20:10.423Z,1.28
2023-04-18T01:21:10.456Z,1.28
2023-04-18T01:22:10.472Z,1.30
2023-04-18T01:23:10.618Z,1.30
2023-04-18T01:24:10.651Z,1.27
2023-04-18T01:25:10.502Z,1.27
2023-04-18T01:26:10.565Z,1.28
2023-04-18T01:27:10.575Z,1.26
2023-04-18T01:28:10.583Z,1.25
2023-04-18T01:29:10.522Z,1.29
2023-04-18T01:30:10.611Z,1.31
2023-04-18T01:31:10.636Z,1.29
2023-04-18T01:32:10.601Z,1.30
2023-04-18T01:33:10.616Z,1.28
2023-04-18T01:34:10.731Z,1.27
2023-04-18T01:35:10.624Z,1.29
2023-04-18T01:36:10.661Z,1.30
2023-04-18T01:37:10.678Z,1.30
2023-04-18T01:38:10.684Z,1.28
2023-04-18T01:39:10.699Z,1.31
2023-04-18T01:40:10.700Z,1.27
2023-04-18T01:41:10.709Z,1.31
2023-04-18T01:42:10.775Z,1.26
2023-04-18T01:43:10.801Z,1.26
2023-04-18T01:44:10.808Z,1.28
2023-04-18T01:45:10.800Z,1.28
2023-04-18T01:46:10.782Z,1.25
2023-04-18T01:47:10.839Z,1.27
2023-04-18T01:48:10.816Z,1.27
2023-04-18T01:49:10.833Z,1.28
2023-04-18T01:50:10.835Z,1.29
2023-04-18T01:51:10.858Z,1.30
2023-04-18T01:52:10.887Z,1.29
2023-04-18T01:53:10.903Z,1.30
2023-04-18T01:54:10.956Z,1.29
2023-04-18T01:55:10.917Z,1.28
2023-04-18T01:56:10.931Z,1.27
2023-04-18T01:57:10.918Z,1.28
2023-04-18T01:58:10.921Z,1.32
2023-04-18T01:59:10.935Z,1.28
2023-04-18T02:00:10.949Z,1.29
2023-04-18T02:01:11.039Z,1.30
2023-04-18T02:02:11.063Z,1.29
2023-04-18T02:03:11.198Z,1.30
2023-04-18T02:04:11.069Z,1.27
2023-04-18T02:05:11.035Z,1.27
2023-04-18T02:06:11.042Z,1.28
2023-04-18T02:07:11.061Z,1.27
2023-04-18T02:08:11.102Z,1.28
2023-04-18T02:09:11.083Z,1.31
2023-04-18T02:10:11.121Z,1.29
2023-04-18T02:11:11.178Z,1.27
2023-04-18T02:12:11.181Z,1.28
2023-04-18T02:13:11.432Z,1.28
2023-04-18T02:14:11.369Z,1.28
2023-04-18T02:15:11.209Z,1.29
2023-04-18T02:16:11.292Z,1.27
2023-04-18T02:17:11.219Z,1.27
2023-04-18T02:18:11.215Z,1.29
2023-04-18T02:19:11.278Z,1.28
2023-04-18T02:20:11.296Z,1.27
2023-04-18T02:21:11.349Z,1.29
2023-04-18T02:22:11.352Z,1.27
2023-04-18T02:23:11.358Z,1.30
2023-04-18T02:24:11.509Z,1.29
2023-04-18T02:25:11.378Z,1.25
2023-04-18T02:26:11.440Z,1.28
2023-04-18T02:27:11.436Z,1.27
2023-04-18T02:28:11.439Z,1.28
2023-04-18T02:29:11.500Z,1.28
2023-04-18T02:30:11.541Z,1.29
2023-04-18T02:31:11.557Z,1.29
2023-04-18T02:32:11.608Z,1.27
2023-04-18T02:33:11.553Z,1.29
2023-04-18T02:34:11.866Z,1.27
2023-04-18T02:35:11.595Z,1.27
2023-04-18T02:36:11.598Z,1.28
2023-04-18T02:37:11.663Z,1.27
2023-04-18T02:38:11.693Z,1.28
2023-04-18T02:39:11.722Z,1.26
2023-04-18T02:40:11.721Z,1.27
2023-04-18T02:41:11.739Z,1.27
2023-04-18T02:42:11.938Z,1.28
2023-04-18T02:43:11.809Z,1.28
2023-04-18T02:44:12.119Z,1.27
2023-04-18T02:45:11.817Z,1.27
2023-04-18T02:46:11.896Z,1.28
2023-04-18T02:47:12.446Z,1.27
2023-04-18T02:48:11.944Z,1.28
2023-04-18T02:49:11.959Z,1.28
2023-04-18T02:50:11.952Z,1.29
2023-04-18T02:51:11.964Z,1.27
2023-04-18T02:52:12.017Z,1.29
2023-04-18T02:53:12.016Z,1.28
2023-04-18T02:54:12.228Z,1.29
2023-04-18T02:55:12.100Z,1.29
2023-04-18T02:56:12.099Z,1.27
2023-04-18T02:57:12.104Z,1.29
2023-04-18T02:58:12.174Z,1.28
2023-04-18T02:59:12.156Z,1.26
2023-04-18T03:00:12.230Z,1.28
2023-04-18T03:01:12.250Z,1.28
2023-04-18T03:02:12.290Z,1.27
2023-04-18T03:03:12.336Z,1.28
2023-04-18T03:04:12.540Z,1.28
2023-04-18T03:05:12.477Z,1.29
2023-04-18T03:06:12.367Z,1.28
2023-04-18T03:07:12.381Z,1.29
2023-04-18T03:08:12.434Z,1.27
2023-04-18T03:09:12.441Z,1.29
2023-04-18T03:10:12.439Z,1.27
2023-04-18T03:11:12.504Z,1.28
2023-04-18T03:12:12.519Z,1.27
2023-04-18T03:13:12.585Z,1.28
2023-04-18T03:14:12.787Z,1.28
2023-04-18T03:15:12.580Z,1.25
2023-04-18T03:16:12.725Z,1.27
2023-04-18T03:17:12.650Z,1.25
2023-04-18T03:18:12.721Z,1.26
2023-04-18T03:19:12.715Z,1.27
2023-04-18T03:20:12.708Z,1.26
2023-04-18T03:21:12.779Z,1.26
2023-04-18T03:22:12.780Z,1.27
2023-04-18T03:23:12.843Z,1.26
2023-04-18T03:24:12.824Z,1.28
2023-04-18T03:25:12.847Z,1.27
2023-04-18T03:26:12.864Z,1.26
2023-04-18T03:27:12.921Z,1.28
2023-04-18T03:28:12.953Z,1.27
2023-04-18T03:29:12.984Z,1.27
2023-04-18T03:30:12.986Z,1.25
2023-04-18T03:31:13.029Z,1.27
2023-04-18T03:32:13.079Z,1.27
2023-04-18T03:33:13.062Z,1.27
2023-04-18T03:34:13.344Z,1.26
2023-04-18T03:35:13.131Z,1.25
2023-04-18T03:36:13.183Z,1.27
2023-04-18T03:37:13.146Z,1.25
2023-04-18T03:38:13.249Z,1.27
2023-04-18T03:39:13.183Z,1.26
2023-04-18T03:40:13.215Z,1.25
2023-04-18T03:41:13.221Z,1.27
2023-04-18T03:42:13.278Z,1.27
2023-04-18T03:43:13.339Z,1.25
2023-04-18T03:44:13.516Z,1.26
2023-04-18T03:45:13.363Z,1.25
2023-04-18T03:46:13.476Z,1.26
2023-04-18T03:47:13.411Z,1.26
2023-04-18T03:48:13.414Z,1.25
2023-04-18T03:49:13.485Z,1.27
2023-04-18T03:50:13.489Z,1.24
2023-04-18T03:51:13.504Z,1.25
2023-04-18T03:52:13.500Z,1.26
2023-04-18T03:53:13.554Z,1.26
2023-04-18T03:54:13.809Z,1.25
2023-04-18T03:55:13.636Z,1.25
2023-04-18T03:56:13.703Z,1.25
2023-04-18T03:57:13.692Z,1.26
2023-04-18T03:58:13.748Z,1.25
2023-04-18T03:59:13.760Z,1.26
2023-04-18T04:00:13.764Z,1.23
2023-04-18T04:01:13.817Z,1.25
2023-04-18T04:02:13.899Z,1.24
2023-04-18T04:03:13.975Z,1.27
2023-04-18T04:04:14.262Z,1.25
2023-04-18T04:05:13.898Z,1.23
2023-04-18T04:06:13.965Z,1.23
2023-04-18T04:07:13.982Z,1.24
2023-04-18T04:08:14.015Z,1.22
2023-04-18T04:09:14.076Z,1.17
2023-04-18T04:10:14.091Z,1.12
2023-04-18T04:11:14.137Z,1.10
2023-04-18T04:12:14.150Z,1.09
2023-04-18T04:13:14.205Z,1.07
2023-04-18T04:14:14.353Z,1.04
2023-04-18T04:15:14.293Z,1.01
2023-04-18T04:16:14.369Z,0.98
2023-04-18T04:17:14.398Z,0.95
2023-04-18T04:18:14.448Z,0.95
2023-04-18T04:19:14.453Z,0.89
2023-04-18T04:20:14.504Z,0.85
2023-04-18T04:21:14.574Z,0.87
2023-04-18T04:22:14.638Z,0.83
2023-04-18T04:23:14.634Z,0.81
2023-04-18T04:24:14.909Z,0.80
2023-04-18T04:25:14.762Z,0.78
2023-04-18T04:26:14.813Z,0.75
2023-04-18T04:27:14.867Z,0.72
2023-04-18T04:28:14.923Z,0.71
2023-04-18T04:29:14.929Z,0.70
2023-04-18T04:30:14.993Z,0.69
2023-04-18T04:31:15.046Z,0.68
2023-04-18T04:32:15.076Z,0.65
2023-04-18T04:33:15.102Z,0.65
2023-04-18T04:34:15.326Z,0.65
2023-04-18T04:35:15.181Z,0.65
2023-04-18T04:36:17.290Z,0.66
2023-04-18T04:37:15.239Z,0.66
2023-04-18T04:38:15.367Z,0.65
2023-04-18T04:39:15.220Z,0.64
2023-04-18T04:40:15.214Z,0.62
2023-04-18T04:41:15.177Z,0.62
2023-04-18T04:42:15.171Z,0.62
2023-04-18T04:43:15.175Z,0.61
2023-04-18T04:44:15.518Z,0.61
2023-04-18T04:45:15.216Z,0.60
2023-04-18T04:46:15.171Z,0.60
2023-04-18T04:47:15.176Z,0.61
2023-04-18T04:48:15.116Z,0.60
2023-04-18T04:49:15.109Z,0.60
2023-04-18T04:50:15.132Z,0.61
2023-04-18T04:51:15.132Z,0.60
2023-04-18T04:52:15.138Z,0.61
2023-04-18T04:53:15.110Z,0.60
2023-04-18T04:54:15.247Z,0.61
2023-04-18T04:55:15.108Z,0.62
2023-04-18T04:56:15.104Z,0.63
2023-04-18T04:57:15.066Z,0.63
2023-04-18T04:58:15.075Z,0.64
2023-04-18T04:59:15.086Z,0.63
2023-04-18T05:00:15.032Z,0.63
2023-04-18T05:01:15.134Z,0.63
2023-04-18T05:02:15.197Z,0.61
2023-04-18T05:03:15.155Z,0.58
2023-04-18T05:04:15.501Z,0.55
2023-04-18T05:05:15.037Z,0.53
2023-04-18T05:06:15.022Z,0.51
2023-04-18T05:07:15.035Z,0.50
2023-04-18T05:08:15.201Z,0.50
2023-04-18T05:09:15.007Z,0.52
2023-04-18T05:10:15.003Z,0.54
2023-04-18T05:11:15.022Z,0.55
2023-04-18T05:12:14.976Z,0.54
2023-04-18T05:13:14.978Z,0.52
2023-04-18T05:14:15.220Z,0.50
2023-04-18T05:15:14.990Z,0.50
2023-04-18T05:16:14.961Z,0.50
2023-04-18T05:17:14.966Z,0.50
2023-04-18T05:18:15.014Z,0.50
2023-04-18T05:19:14.959Z,0.51
2023-04-18T05:20:15.099Z,0.50
2023-04-18T05:21:15.050Z,0.50
2023-04-18T05:22:15.133Z,0.50
2023-04-18T05:23:15.223Z,0.52
2023-04-18T05:24:15.471Z,0.52
2023-04-18T05:25:15.371Z,0.53
2023-04-18T05:26:15.414Z,0.53
2023-04-18T05:27:17.201Z,0.55
2023-04-18T05:28:15.460Z,0.57
2023-04-18T05:29:15.429Z,0.55
2023-04-18T05:30:15.439Z,0.51
2023-04-18T05:31:15.457Z,0.50
2023-04-18T05:32:15.429Z,0.51
2023-04-18T05:33:15.430Z,0.50
2023-04-18T05:34:15.722Z,0.51
2023-04-18T05:35:15.433Z,0.50
2023-04-18T05:36:15.384Z,0.51
2023-04-18T05:37:15.368Z,0.51
2023-04-18T05:38:15.400Z,0.52
2023-04-18T05:39:15.430Z,0.51
2023-04-18T05:40:15.363Z,0.51
2023-04-18T05:41:15.382Z,0.54
2023-04-18T05:42:15.375Z,0.54
2023-04-18T05:43:15.331Z,0.55
2023-04-18T05:44:15.531Z,0.57
2023-04-18T05:45:15.391Z,0.58
2023-04-18T05:46:15.366Z,0.58
2023-04-18T05:47:15.306Z,0.61
2023-04-18T05:48:15.400Z,0.64
2023-04-18T05:49:15.351Z,0.67
2023-04-18T05:50:15.327Z,0.69
2023-04-18T05:51:15.542Z,0.71
2023-04-18T05:52:15.258Z,0.73
2023-04-18T05:53:15.353Z,0.77
2023-04-18T05:54:15.438Z,0.78
2023-04-18T05:55:15.636Z,0.80
2023-04-18T05:56:15.271Z,0.83
2023-04-18T05:57:16.088Z,0.88
2023-04-18T05:58:15.280Z,0.87
2023-04-18T05:59:15.243Z,0.89
2023-04-18T06:00:15.286Z,0.90
2023-04-18T06:01:15.348Z,0.92
2023-04-18T06:02:15.306Z,0.97
2023-04-18T06:03:15.349Z,0.97
2023-04-18T06:04:15.598Z,0.96
2023-04-18T06:05:15.574Z,0.96
2023-04-18T06:06:15.203Z,0.97
2023-04-18T06:07:15.204Z,0.98
2023-04-18T06:08:15.205Z,0.97
2023-04-18T06:09:15.233Z,0.99
2023-04-18T06:10:15.160Z,0.99
2023-04-18T06:11:15.181Z,1.00
2023-04-18T06:12:15.182Z,0.99
2023-04-18T06:13:15.146Z,1.01
2023-04-18T06:14:15.442Z,1.01
2023-04-18T06:15:15.321Z,1.02
2023-04-18T06:16:15.264Z,1.04
2023-04-18T06:17:15.211Z,1.03
2023-04-18T06:18:15.178Z,1.03
2023-04-18T06:19:15.217Z,1.01
2023-04-18T06:20:15.309Z,1.03
2023-04-18T06:21:15.348Z,1.02
2023-04-18T06:22:15.850Z,1.03
2023-04-18T06:23:15.314Z,1.03
2023-04-18T06:24:15.633Z,1.03
2023-04-18T06:25:15.268Z,1.05
2023-04-18T06:26:15.289Z,1.05
2023-04-18T06:27:27.926Z,1.05
2023-04-18T06:28:16.493Z,1.05
2023-04-18T06:29:15.240Z,1.05
2023-04-18T06:30:15.257Z,1.05
2023-04-18T06:31:15.569Z,1.05
2023-04-18T06:32:15.210Z,1.06
2023-04-18T06:33:15.538Z,1.04
2023-04-18T06:34:15.597Z,1.06
2023-04-18T06:35:15.600Z,1.05
2023-04-18T06:36:15.250Z,1.04
2023-04-18T06:37:15.202Z,1.03
2023-04-18T06:38:15.164Z,0.96
2023-04-18T06:39:15.155Z,0.90
2023-04-18T06:40:15.581Z,0.99
2023-04-18T06:41:15.168Z,1.03
2023-04-18T06:42:15.146Z,1.02
2023-04-18T06:43:15.147Z,1.06
2023-04-18T06:44:15.346Z,1.03
2023-04-18T06:45:15.095Z,1.02
2023-04-18T06:46:18.137Z,1.05
2023-04-18T06:47:17.057Z,1.03
2023-04-18T06:48:15.124Z,1.03
2023-04-18T06:49:15.089Z,1.04
2023-04-18T06:50:15.118Z,1.04
2023-04-18T06:51:15.092Z,1.05
2023-04-18T06:52:15.354Z,1.08
2023-04-18T06:53:15.108Z,1.10
2023-04-18T06:54:15.254Z,1.06
2023-04-18T06:55:15.056Z,1.12
2023-04-18T06:56:15.075Z,1.11
2023-04-18T06:57:15.037Z,1.14
2023-04-18T06:58:15.045Z,1.15
2023-04-18T06:59:15.265Z,1.12
2023-04-18T07:00:15.090Z,1.16
2023-04-18T07:01:15.124Z,1.18
2023-04-18T07:02:15.181Z,1.19
2023-04-18T07:03:15.287Z,1.20
2023-04-18T07:04:15.639Z,1.22
2023-04-18T07:05:15.249Z,1.25
2023-04-18T07:06:15.281Z,1.23
2023-04-18T07:07:15.365Z,1.26
2023-04-18T07:08:15.420Z,1.27
2023-04-18T07:09:15.370Z,1.27
2023-04-18T07:10:15.368Z,1.30
2023-04-18T07:11:15.484Z,1.31
2023-04-18T07:12:15.456Z,1.31
2023-04-18T07:13:15.405Z,1.34
2023-04-18T07:14:15.618Z,1.35
2023-04-18T07:15:15.461Z,1.36
2023-04-18T07:16:15.727Z,1.38
2023-04-18T07:17:15.526Z,1.39
2023-04-18T07:18:23.267Z,1.41
2023-04-18T07:19:16.515Z,1.41
2023-04-18T07:20:15.498Z,1.42
2023-04-18T07:21:15.473Z,1.42
2023-04-18T07:22:15.527Z,1.43
2023-04-18T07:23:15.524Z,1.42
2023-04-18T07:24:15.646Z,1.45
2023-04-18T07:25:15.453Z,1.46
2023-04-18T07:26:15.472Z,1.44
2023-04-18T07:27:15.418Z,1.49
2023-04-18T07:28:15.476Z,1.47
2023-04-18T07:29:15.500Z,1.49
2023-04-18T07:30:15.576Z,1.51
2023-04-18T07:31:16.134Z,1.54
2023-04-18T07:32:15.563Z,1.55
2023-04-18T07:33:15.535Z,1.38
2023-04-18T07:34:15.737Z,1.24
2023-04-18T07:35:15.571Z,1.30
2023-04-18T07:36:15.976Z,1.27
2023-04-18T07:37:15.405Z,1.31
2023-04-18T07:38:15.347Z,1.34
2023-04-18T07:39:15.380Z,1.28
2023-04-18T07:40:15.368Z,1.23
2023-04-18T07:41:15.377Z,1.29
2023-04-18T07:42:15.439Z,1.25
2023-04-18T07:43:15.352Z,1.27
2023-04-18T07:44:15.549Z,1.26
2023-04-18T07:45:15.396Z,1.23
2023-04-18T07:46:15.555Z,1.22
2023-04-18T07:47:15.409Z,1.23
2023-04-18T07:48:15.475Z,1.20
2023-04-18T07:49:15.687Z,1.24
2023-04-18T07:50:15.540Z,1.22
2023-04-18T07:51:15.562Z,1.23
2023-04-18T07:52:15.774Z,1.22
2023-04-18T07:53:15.824Z,1.23
2023-04-18T07:54:15.663Z,1.30
2023-04-18T07:55:16.406Z,1.29
2023-04-18T07:56:16.093Z,1.31
2023-04-18T07:57:15.684Z,1.33
2023-04-18T07:58:15.757Z,1.34
2023-04-18T07:59:16.086Z,1.34
2023-04-18T08:00:15.821Z,1.37
2023-04-18T08:01:15.774Z,1.38
2023-04-18T08:02:16.770Z,1.38
2023-04-18T08:03:16.202Z,1.36
2023-04-18T08:04:16.539Z,1.39
2023-04-18T08:05:16.096Z,1.41
2023-04-18T08:06:16.153Z,1.40
2023-04-18T08:07:16.168Z,1.37
2023-04-18T08:08:16.200Z,1.40
2023-04-18T08:09:16.413Z,1.40
2023-04-18T08:10:16.290Z,1.38
2023-04-18T08:11:16.365Z,1.37
2023-04-18T08:12:16.409Z,1.36
2023-04-18T08:13:16.468Z,1.36
2023-04-18T08:14:16.485Z,1.35
2023-04-18T08:15:16.597Z,1.27
2023-04-18T08:16:17.620Z,1.29
2023-04-18T08:17:16.662Z,1.25
2023-04-18T08:18:16.756Z,1.27
2023-04-18T08:19:17.130Z,1.23
2023-04-18T08:20:16.885Z,1.19
2023-04-18T08:21:16.799Z,1.16
2023-04-18T08:22:16.910Z,1.19
2023-04-18T08:23:16.855Z,1.21
2023-04-18T08:24:16.895Z,1.19
2023-04-18T08:25:17.115Z,1.17
2023-04-18T08:26:16.997Z,1.19
2023-04-18T08:27:17.019Z,1.22
2023-04-18T08:28:17.053Z,1.10
2023-04-18T08:29:17.102Z,1.11
2023-04-18T08:30:17.109Z,1.20
2023-04-18T08:31:17.233Z,1.20
2023-04-18T08:32:17.160Z,1.15
2023-04-18T08:33:17.203Z,1.20
2023-04-18T08:34:17.288Z,1.18
2023-04-18T08:35:17.282Z,1.20
2023-04-18T08:36:17.504Z,1.17
2023-04-18T08:37:17.362Z,1.18
2023-04-18T08:38:17.443Z,1.12
2023-04-18T08:39:17.474Z,1.13
2023-04-18T08:40:17.478Z,1.11
2023-04-18T08:41:17.547Z,1.05
2023-04-18T08:42:17.622Z,0.93
2023-04-18T08:43:17.651Z,0.79
2023-04-18T08:44:17.632Z,0.71
2023-04-18T08:45:17.712Z,0.57
2023-04-18T08:46:17.859Z,0.52
2023-04-18T08:47:17.851Z,0.57
2023-04-18T08:48:18.157Z,0.59
2023-04-18T08:49:17.880Z,0.53
2023-04-18T08:50:17.955Z,0.51
2023-04-18T08:51:18.069Z,0.52
2023-04-18T08:52:18.032Z,0.53
2023-04-18T08:53:18.279Z,0.57
2023-04-18T08:54:18.085Z,0.57
2023-04-18T08:55:18.132Z,0.55
2023-04-18T08:56:18.207Z,0.56
2023-04-18T08:57:18.208Z,0.55
2023-04-18T08:58:18.210Z,0.56
2023-04-18T08:59:18.330Z,0.58
2023-04-18T09:00:19.621Z,0.59
2023-04-18T09:01:18.348Z,0.59
2023-04-18T09:02:18.360Z,0.58
2023-04-18T09:03:18.432Z,0.59
2023-04-18T09:04:18.464Z,0.60
2023-04-18T09:05:18.386Z,0.65
2023-04-18T09:06:18.409Z,0.64
2023-04-18T09:07:18.508Z,0.65
2023-04-18T09:08:19.149Z,0.66
2023-04-18T09:09:18.695Z,0.69
2023-04-18T09:10:18.514Z,0.65
2023-04-18T09:11:18.508Z,0.62
2023-04-18T09:12:18.550Z,0.43
2023-04-18T09:13:18.557Z,0.34
2023-04-18T09:14:18.550Z,0.34
2023-04-18T09:15:18.633Z,0.40
2023-04-18T09:16:18.703Z,0.39
2023-04-18T09:17:18.791Z,0.39
2023-04-18T09:18:18.760Z,0.54
2023-04-18T09:19:19.103Z,0.66
2023-04-18T09:20:18.822Z,0.71
2023-04-18T09:21:18.917Z,0.76
2023-04-18T09:22:19.161Z,0.76
2023-04-18T09:23:19.007Z,0.83
2023-04-18T09:24:19.080Z,0.87
2023-04-18T09:25:19.115Z,0.89
2023-04-18T09:26:19.177Z,0.93
2023-04-18T09:27:19.654Z,0.96
2023-04-18T09:28:19.190Z,1.02
2023-04-18T09:29:19.299Z,1.10
2023-04-18T09:30:19.390Z,1.03
2023-04-18T09:31:19.456Z,1.18
2023-04-18T09:32:19.622Z,1.24
2023-04-18T09:33:19.530Z,1.19
2023-04-18T09:34:19.543Z,1.21
2023-04-18T09:35:19.597Z,1.36
2023-04-18T09:36:19.689Z,1.51
2023-04-18T09:37:19.664Z,1.63
2023-04-18T09:38:19.671Z,1.42
2023-04-18T09:39:19.762Z,1.43
2023-04-18T09:40:19.844Z,1.28
2023-04-18T09:41:21.484Z,1.16
2023-04-18T09:42:28.913Z,1.06
2023-04-18T09:43:19.837Z,1.05
2023-04-18T09:44:20.279Z,0.95
2023-04-18T09:45:19.892Z,0.87
2023-04-18T09:46:19.883Z,0.87
2023-04-18T09:47:19.823Z,0.79
2023-04-18T09:48:19.835Z,0.78
2023-04-18T09:49:19.893Z,0.68
2023-04-18T09:50:19.839Z,0.69
2023-04-18T09:51:19.917Z,0.65
2023-04-18T09:52:19.817Z,0.56
2023-04-18T09:53:20.950Z,0.55
2023-04-18T09:54:20.169Z,0.52
2023-04-18T09:55:19.809Z,0.50
2023-04-18T09:56:19.860Z,0.50
2023-04-18T09:57:19.731Z,0.53
2023-04-18T09:58:19.799Z,0.50
2023-04-18T09:59:21.234Z,0.52
2023-04-18T10:00:19.800Z,0.50
2023-04-18T10:01:19.769Z,0.50
2023-04-18T10:02:19.802Z,0.50
2023-04-18T10:03:19.860Z,0.50
2023-04-18T10:04:19.910Z,0.50
2023-04-18T10:05:21.192Z,0.51
2023-04-18T10:06:19.727Z,0.50
2023-04-18T10:07:19.732Z,0.51
2023-04-18T10:08:19.676Z,0.52
2023-04-18T10:09:19.762Z,0.50
2023-04-18T10:10:19.726Z,0.50
2023-04-18T10:11:20.300Z,0.53
2023-04-18T10:12:19.795Z,0.60
2023-04-18T10:13:19.735Z,0.60
2023-04-18T10:14:19.732Z,0.54
2023-04-18T10:15:20.171Z,0.50
2023-04-18T10:16:20.203Z,0.50
2023-04-18T10:17:19.652Z,0.50
2023-04-18T10:18:20.372Z,0.50
2023-04-18T10:19:19.693Z,0.50
2023-04-18T10:20:19.690Z,0.50
2023-04-18T10:21:19.669Z,0.52
2023-04-18T10:22:19.691Z,0.50
2023-04-18T10:23:19.651Z,0.51
2023-04-18T10:24:19.660Z,0.50
2023-04-18T10:25:19.878Z,0.50
2023-04-18T10:26:19.676Z,0.50
2023-04-18T10:27:20.449Z,0.51
2023-04-18T10:28:19.768Z,0.50
2023-04-18T10:29:19.690Z,0.50
2023-04-18T10:30:19.730Z,0.51
2023-04-18T10:31:19.748Z,0.51
2023-04-18T10:32:20.149Z,0.52
2023-04-18T10:33:29.431Z,0.53
2023-04-18T10:34:20.957Z,0.52
2023-04-18T10:35:19.724Z,0.52
2023-04-18T10:36:19.687Z,0.49
2023-04-18T10:37:19.715Z,0.48
2023-04-18T10:38:20.170Z,0.48
2023-04-18T10:39:19.824Z,0.50
2023-04-18T10:40:19.710Z,0.50
2023-04-18T10:41:19.701Z,0.51
2023-04-18T10:42:19.700Z,0.52
2023-04-18T10:43:19.634Z,0.50
2023-04-18T10:44:19.671Z,0.51
2023-04-18T10:45:19.760Z,0.50
2023-04-18T10:46:31.003Z,0.54
2023-04-18T10:47:20.799Z,0.52
2023-04-18T10:48:19.702Z,0.52
2023-04-18T10:49:19.644Z,0.51
2023-04-18T10:50:19.632Z,0.54
2023-04-18T10:51:19.650Z,0.51
2023-04-18T10:52:19.663Z,0.51
2023-04-18T10:53:19.650Z,0.50
2023-04-18T10:54:19.600Z,0.51
2023-04-18T10:55:19.560Z,0.51
2023-04-18T10:56:19.584Z,0.50
2023-04-18T10:57:19.598Z,0.52
2023-04-18T10:58:19.579Z,0.52
2023-04-18T10:59:19.608Z,0.53
2023-04-18T11:00:19.665Z,0.50
2023-04-18T11:01:19.636Z,0.56
2023-04-18T11:02:19.581Z,0.50
2023-04-18T11:03:19.697Z,0.54
2023-04-18T11:04:20.153Z,0.52
2023-04-18T11:05:19.697Z,0.51
2023-04-18T11:06:19.686Z,0.50
2023-04-18T11:07:19.802Z,0.50
2023-04-18T11:08:19.810Z,0.50
2023-04-18T11:09:19.862Z,0.52
2023-04-18T11:10:19.912Z,0.55
2023-04-18T11:11:19.922Z,0.50
2023-04-18T11:12:19.992Z,0.53
2023-04-18T11:13:20.004Z,0.56
2023-04-18T11:14:20.100Z,0.55
2023-04-18T11:15:20.119Z,0.57
2023-04-18T11:16:20.234Z,0.61
2023-04-18T11:17:20.156Z,0.63
2023-04-18T11:18:20.195Z,0.61
2023-04-18T11:19:20.699Z,0.63
2023-04-18T11:20:20.298Z,0.61
2023-04-18T11:21:20.375Z,0.60
2023-04-18T11:22:20.382Z,0.54
2023-04-18T11:23:20.499Z,0.55
2023-04-18T11:24:20.422Z,0.58
2023-04-18T11:25:20.699Z,0.58
2023-04-18T11:26:20.534Z,0.55
2023-04-18T11:27:20.657Z,0.55
2023-04-18T11:28:20.623Z,0.55
2023-04-18T11:29:20.665Z,0.50
2023-04-18T11:30:20.772Z,0.52
2023-04-18T11:31:20.838Z,0.50
2023-04-18T11:32:20.954Z,0.51
2023-04-18T11:33:20.877Z,0.53
2023-04-18T11:34:20.896Z,0.50
2023-04-18T11:35:21.023Z,0.53
2023-04-18T11:36:21.041Z,0.55
2023-04-18T11:37:21.087Z,0.57
2023-04-18T11:38:23.279Z,0.60
2023-04-18T11:39:21.139Z,0.59
2023-04-18T11:40:21.146Z,0.57
2023-04-18T11:41:21.166Z,0.58
2023-04-18T11:42:21.150Z,0.60
2023-04-18T11:43:21.135Z,0.62
2023-04-18T11:44:21.121Z,0.57
2023-04-18T11:45:21.138Z,0.55
2023-04-18T11:46:21.103Z,0.50
2023-04-18T11:47:21.186Z,0.51
2023-04-18T11:48:21.097Z,0.54
2023-04-18T11:49:21.056Z,0.53
2023-04-18T11:50:21.060Z,0.51
2023-04-18T11:51:21.033Z,0.55
2023-04-18T11:52:21.086Z,0.52
2023-04-18T11:53:21.088Z,0.51
2023-04-18T11:54:21.010Z,0.50
2023-04-18T11:55:21.049Z,0.55
2023-04-18T11:56:21.006Z,0.58
2023-04-18T11:57:21.000Z,0.55
2023-04-18T11:58:21.016Z,0.56
2023-04-18T11:59:21.043Z,0.53
2023-04-18T12:00:21.082Z,0.53
2023-04-18T12:01:21.043Z,0.50
2023-04-18T12:02:21.091Z,0.52
2023-04-18T12:03:21.126Z,0.57
2023-04-18T12:04:21.534Z,0.59
2023-04-18T12:05:21.861Z,0.59
2023-04-18T12:06:21.005Z,0.58
2023-04-18T12:07:20.978Z,0.61
2023-04-18T12:08:21.006Z,0.62
2023-04-18T12:09:20.925Z,0.65
2023-04-18T12:10:20.929Z,0.61
2023-04-18T12:11:20.945Z,0.61
2023-04-18T12:12:20.957Z,0.60
2023-04-18T12:13:20.936Z,0.60
2023-04-18T12:14:20.916Z,0.63
2023-04-18T12:15:20.934Z,0.60
2023-04-18T12:16:20.952Z,0.61
2023-04-18T12:17:20.918Z,0.64
2023-04-18T12:18:20.890Z,0.61
2023-04-18T12:19:20.929Z,0.69
2023-04-18T12:20:21.035Z,0.68
2023-04-18T12:21:20.861Z,0.72
2023-04-18T12:22:20.911Z,0.72
2023-04-18T12:23:20.980Z,0.66
2023-04-18T12:24:21.315Z,0.65
2023-04-18T12:25:21.576Z,0.61
2023-04-18T12:26:21.124Z,0.63
2023-04-18T12:27:21.153Z,0.56
2023-04-18T12:28:21.215Z,0.59
2023-04-18T12:29:21.291Z,0.59
2023-04-18T12:30:21.338Z,0.60
2023-04-18T12:31:21.444Z,0.62
2023-04-18T12:32:21.527Z,0.62
2023-04-18T12:33:21.556Z,0.62
2023-04-18T12:34:21.611Z,0.64
2023-04-18T12:35:21.591Z,0.59
2023-04-18T12:36:21.694Z,0.58
2023-04-18T12:37:21.750Z,0.56
2023-04-18T12:38:21.791Z,0.61
2023-04-18T12:39:21.959Z,0.59
2023-04-18T12:40:21.912Z,0.60
2023-04-18T12:41:21.968Z,0.60
2023-04-18T12:42:22.049Z,0.57
2023-04-18T12:43:22.085Z,0.56
2023-04-18T12:44:22.141Z,0.55
2023-04-18T12:45:22.212Z,0.55
2023-04-18T12:46:22.284Z,0.53
2023-04-18T12:47:22.333Z,0.52
2023-04-18T12:48:22.421Z,0.53
2023-04-18T12:49:22.465Z,0.57
2023-04-18T12:50:22.556Z,0.55
2023-04-18T12:51:22.549Z,0.55
2023-04-18T12:52:22.698Z,0.53
2023-04-18T12:53:22.781Z,0.54
2023-04-18T12:54:22.728Z,0.55
2023-04-18T12:55:22.885Z,0.62
2023-04-18T12:56:22.928Z,0.59
2023-04-18T12:57:22.947Z,0.56
2023-04-18T12:58:23.006Z,0.51
2023-04-18T12:59:23.066Z,0.58
2023-04-18T13:00:23.115Z,0.65
2023-04-18T13:01:23.227Z,0.60
2023-04-18T13:02:23.327Z,0.62
2023-04-18T13:03:23.537Z,0.63
2023-04-18T13:04:23.466Z,0.64
2023-04-18T13:05:23.413Z,0.61
2023-04-18T13:06:23.491Z,0.63
2023-04-18T13:07:23.476Z,0.62
2023-04-18T13:08:23.576Z,0.62
2023-04-18T13:09:23.664Z,0.58
2023-04-18T13:10:23.702Z,0.59
2023-04-18T13:11:23.771Z,0.60
2023-04-18T13:12:23.812Z,0.61
2023-04-18T13:13:23.881Z,0.58
2023-04-18T13:14:23.936Z,0.57
2023-04-18T13:15:23.999Z,0.59
2023-04-18T13:16:24.066Z,0.72
2023-04-18T13:17:24.162Z,0.76
2023-04-18T13:18:24.265Z,0.84